AFR1139 LOWW-LFPG
Flight info
| Callsign | AFR1139 |
|---|---|
| Flight time | N/A |
| Altitude | 34000 |
| Route | MEDIX DCT RENKA/N0450F360 DCT ASPAT DCT VIBOM DCT BETEX DCT IDOSA DCT TOLVU/N0453F370 DCT RAPOR DCT VEDUS |
| Aircraft | B738/M-SDE2E3FGHIRWXY/LB1 |
Departure
| Time | N/A |
|---|---|
| Airport | Vienna International Airport (LOWW) |
Arrival
| Time | 2026-05-04 12:22 |
|---|---|
| Airport | Charles de Gaulle International Airport (LFPG) |
| Time | Latitude | Longitude | Altitude | Speed | Heading |
|---|---|---|---|---|---|
| 2026-05-04 11:19 | 49.44725 | 9.27355 | 36018 ft | 423 kts | 280° |
| 2026-05-04 11:19 | 49.45457 | 9.22936 | 36015 ft | 423 kts | 280° |
| 2026-05-04 11:20 | 49.46901 | 9.14162 | 36009 ft | 423 kts | 279° |
| 2026-05-04 11:20 | 49.48173 | 9.05352 | 36010 ft | 422 kts | 278° |
| 2026-05-04 11:22 | 49.52975 | 8.70082 | 36016 ft | 422 kts | 278° |
| 2026-05-04 11:23 | 49.54180 | 8.61219 | 36025 ft | 422 kts | 278° |
| 2026-05-04 11:25 | 49.58338 | 8.30212 | 36009 ft | 423 kts | 277° |
| 2026-05-04 11:25 | 49.59513 | 8.21320 | 36003 ft | 424 kts | 277° |
| 2026-05-04 11:27 | 49.64730 | 7.81167 | 36005 ft | 425 kts | 277° |
| 2026-05-04 11:28 | 49.65873 | 7.72212 | 36002 ft | 425 kts | 277° |
| 2026-05-04 11:28 | 49.67011 | 7.63244 | 36018 ft | 425 kts | 277° |
| 2026-05-04 11:29 | 49.68142 | 7.54264 | 36013 ft | 425 kts | 277° |
| 2026-05-04 11:29 | 49.69264 | 7.45295 | 36012 ft | 426 kts | 276° |
| 2026-05-04 11:33 | 49.76903 | 6.82608 | 35987 ft | 423 kts | 276° |
| 2026-05-04 11:33 | 49.77965 | 6.73643 | 35990 ft | 425 kts | 276° |
| 2026-05-04 11:34 | 49.79028 | 6.64612 | 35990 ft | 427 kts | 276° |
| 2026-05-04 11:34 | 49.80089 | 6.55551 | 35987 ft | 427 kts | 276° |
| 2026-05-04 11:35 | 49.81120 | 6.46511 | 35996 ft | 425 kts | 272° |
| 2026-05-04 11:35 | 49.81029 | 6.37561 | 36002 ft | 415 kts | 256° |
| 2026-05-04 11:36 | 49.79849 | 6.28826 | 36004 ft | 415 kts | 254° |
| 2026-05-04 11:36 | 49.78652 | 6.20106 | 36018 ft | 414 kts | 255° |
| 2026-05-04 11:37 | 49.77478 | 6.11372 | 36017 ft | 414 kts | 255° |
| 2026-05-04 11:37 | 49.76310 | 6.02640 | 36019 ft | 414 kts | 255° |
| 2026-05-04 11:38 | 49.75335 | 5.95379 | 36016 ft | 414 kts | 255° |
| 2026-05-04 11:38 | 49.74127 | 5.86661 | 36033 ft | 414 kts | 252° |
| 2026-05-04 11:39 | 49.72268 | 5.78283 | 36020 ft | 412 kts | 246° |
| 2026-05-04 11:41 | 49.65288 | 5.48979 | 35729 ft | 422 kts | 247° |
| 2026-05-04 11:41 | 49.64282 | 5.44720 | 35223 ft | 422 kts | 246° |
| 2026-05-04 11:41 | 49.63276 | 5.40472 | 34606 ft | 421 kts | 246° |
| 2026-05-04 11:41 | 49.62271 | 5.36228 | 33997 ft | 420 kts | 246° |
| 2026-05-04 11:42 | 49.61342 | 5.31972 | 33484 ft | 417 kts | 248° |
| 2026-05-04 11:42 | 49.60468 | 5.27795 | 33012 ft | 412 kts | 248° |
| 2026-05-04 11:42 | 49.59649 | 5.23592 | 32559 ft | 409 kts | 252° |
| 2026-05-04 11:42 | 49.59169 | 5.19264 | 32121 ft | 409 kts | 259° |
| 2026-05-04 11:43 | 49.59093 | 5.14884 | 31683 ft | 409 kts | 265° |
| 2026-05-04 11:43 | 49.59162 | 5.10511 | 31268 ft | 406 kts | 266° |
| 2026-05-04 11:43 | 49.59230 | 5.06173 | 30837 ft | 403 kts | 266° |
| 2026-05-04 11:43 | 49.59289 | 5.01852 | 30411 ft | 401 kts | 265° |
| 2026-05-04 11:44 | 49.59337 | 4.97562 | 29989 ft | 399 kts | 265° |
| 2026-05-04 11:44 | 49.59377 | 4.93356 | 29534 ft | 397 kts | 265° |
| 2026-05-04 11:44 | 49.59414 | 4.89101 | 29043 ft | 395 kts | 265° |
| 2026-05-04 11:44 | 49.59449 | 4.84883 | 28632 ft | 390 kts | 265° |
| 2026-05-04 11:45 | 49.59482 | 4.80724 | 28208 ft | 386 kts | 265° |
| 2026-05-04 11:45 | 49.59513 | 4.76600 | 27775 ft | 383 kts | 265° |
| 2026-05-04 11:45 | 49.59535 | 4.72514 | 27384 ft | 380 kts | 265° |
| 2026-05-04 11:45 | 49.59552 | 4.68415 | 26991 ft | 385 kts | 265° |
| 2026-05-04 11:46 | 49.59566 | 4.64249 | 26584 ft | 391 kts | 265° |
| 2026-05-04 11:46 | 49.59579 | 4.60093 | 26181 ft | 393 kts | 265° |
| 2026-05-04 11:46 | 49.59595 | 4.55888 | 25768 ft | 391 kts | 265° |
| 2026-05-04 11:46 | 49.59610 | 4.51700 | 25367 ft | 388 kts | 266° |
| 2026-05-04 11:47 | 49.59624 | 4.47534 | 24978 ft | 387 kts | 266° |
| 2026-05-04 11:47 | 49.59634 | 4.43386 | 24558 ft | 387 kts | 266° |
| 2026-05-04 11:47 | 49.59644 | 4.39227 | 24136 ft | 385 kts | 266° |
| 2026-05-04 11:47 | 49.59652 | 4.35162 | 23757 ft | 383 kts | 266° |
| 2026-05-04 11:48 | 49.59658 | 4.31070 | 23300 ft | 382 kts | 266° |
| 2026-05-04 11:48 | 49.59663 | 4.26977 | 22858 ft | 380 kts | 266° |
| 2026-05-04 11:48 | 49.59667 | 4.22923 | 22438 ft | 376 kts | 266° |
| 2026-05-04 11:48 | 49.59670 | 4.18917 | 22053 ft | 373 kts | 266° |
| 2026-05-04 11:49 | 49.59671 | 4.14937 | 21658 ft | 370 kts | 266° |
| 2026-05-04 11:49 | 49.59670 | 4.10974 | 21265 ft | 367 kts | 267° |
| 2026-05-04 11:49 | 49.59458 | 4.07089 | 20857 ft | 361 kts | 251° |
| 2026-05-04 11:49 | 49.58469 | 4.03613 | 20539 ft | 353 kts | 237° |
| 2026-05-04 11:50 | 49.57150 | 4.00427 | 20175 ft | 354 kts | 234° |
| 2026-05-04 11:50 | 49.55770 | 3.97258 | 19805 ft | 357 kts | 234° |
| 2026-05-04 11:50 | 49.54401 | 3.94111 | 19446 ft | 358 kts | 234° |
| 2026-05-04 11:50 | 49.53025 | 3.90912 | 19045 ft | 358 kts | 234° |
| 2026-05-04 11:51 | 49.51660 | 3.87704 | 18671 ft | 356 kts | 235° |
| 2026-05-04 11:51 | 49.50310 | 3.84512 | 18319 ft | 356 kts | 235° |
| 2026-05-04 11:51 | 49.48959 | 3.81319 | 17852 ft | 356 kts | 235° |
| 2026-05-04 11:51 | 49.47636 | 3.78114 | 17452 ft | 354 kts | 240° |
| 2026-05-04 11:52 | 49.46834 | 3.74546 | 17118 ft | 352 kts | 256° |
| 2026-05-04 11:52 | 49.46280 | 3.70887 | 16729 ft | 350 kts | 255° |
| 2026-05-04 11:52 | 49.45695 | 3.67259 | 16357 ft | 348 kts | 254° |
| 2026-05-04 11:52 | 49.45094 | 3.63665 | 15992 ft | 347 kts | 254° |
| 2026-05-04 11:53 | 49.44498 | 3.60149 | 15800 ft | 341 kts | 254° |
| 2026-05-04 11:53 | 49.43903 | 3.56647 | 15603 ft | 338 kts | 254° |
| 2026-05-04 11:53 | 49.43301 | 3.53115 | 15420 ft | 344 kts | 254° |
| 2026-05-04 11:53 | 49.42692 | 3.49543 | 15227 ft | 347 kts | 255° |
| 2026-05-04 11:55 | 49.36780 | 3.25762 | 14098 ft | 335 kts | 247° |
| 2026-05-04 11:55 | 49.35890 | 3.22503 | 13944 ft | 327 kts | 247° |
| 2026-05-04 11:56 | 49.35025 | 3.19316 | 13791 ft | 320 kts | 247° |
| 2026-05-04 11:56 | 49.34183 | 3.16206 | 13629 ft | 313 kts | 248° |
| 2026-05-04 11:56 | 49.33356 | 3.13150 | 13495 ft | 309 kts | 248° |
| 2026-05-04 11:56 | 49.32535 | 3.10117 | 13361 ft | 307 kts | 248° |
| 2026-05-04 11:57 | 49.31717 | 3.07099 | 13226 ft | 306 kts | 248° |
| 2026-05-04 11:57 | 49.30903 | 3.04094 | 13100 ft | 305 kts | 248° |
| 2026-05-04 11:57 | 49.30089 | 3.01094 | 12963 ft | 304 kts | 248° |
| 2026-05-04 11:57 | 49.29276 | 2.98101 | 12828 ft | 304 kts | 248° |
| 2026-05-04 11:58 | 49.28462 | 2.95110 | 12690 ft | 304 kts | 248° |
| 2026-05-04 11:58 | 49.27648 | 2.92121 | 12556 ft | 304 kts | 248° |
| 2026-05-04 11:58 | 49.26833 | 2.89130 | 12417 ft | 305 kts | 248° |
| 2026-05-04 11:58 | 49.26015 | 2.86134 | 12294 ft | 305 kts | 247° |
| 2026-05-04 11:59 | 49.25196 | 2.83141 | 12143 ft | 305 kts | 247° |
| 2026-05-04 11:59 | 49.24374 | 2.80137 | 12019 ft | 306 kts | 247° |
| 2026-05-04 11:59 | 49.23552 | 2.77138 | 11878 ft | 306 kts | 247° |
| 2026-05-04 11:59 | 49.22729 | 2.74137 | 11744 ft | 306 kts | 247° |
| 2026-05-04 12:00 | 49.21906 | 2.71142 | 11606 ft | 305 kts | 247° |
| 2026-05-04 12:00 | 49.21085 | 2.68155 | 11457 ft | 304 kts | 247° |
| 2026-05-04 12:00 | 49.20268 | 2.65186 | 11322 ft | 300 kts | 246° |
| 2026-05-04 12:00 | 49.19464 | 2.62273 | 11201 ft | 295 kts | 246° |
| 2026-05-04 12:01 | 49.18673 | 2.59408 | 11031 ft | 290 kts | 246° |
| 2026-05-04 12:01 | 49.18030 | 2.56517 | 10840 ft | 288 kts | 262° |
| 2026-05-04 12:02 | 49.17690 | 2.38220 | 9214 ft | 286 kts | 268° |
| 2026-05-04 12:03 | 49.17585 | 2.35238 | 8930 ft | 284 kts | 265° |
| 2026-05-04 12:03 | 49.17387 | 2.32235 | 8706 ft | 284 kts | 264° |
| 2026-05-04 12:03 | 49.17174 | 2.29202 | 8401 ft | 289 kts | 264° |
| 2026-05-04 12:03 | 49.16965 | 2.26128 | 8108 ft | 291 kts | 264° |
| 2026-05-04 12:04 | 49.16760 | 2.23028 | 7845 ft | 295 kts | 264° |
| 2026-05-04 12:04 | 49.16552 | 2.19885 | 7557 ft | 301 kts | 264° |
| 2026-05-04 12:04 | 49.15964 | 2.16816 | 7219 ft | 303 kts | 238° |
| 2026-05-04 12:04 | 49.14543 | 2.14522 | 6943 ft | 297 kts | 212° |
| 2026-05-04 12:05 | 49.12639 | 2.13405 | 6617 ft | 293 kts | 187° |
| 2026-05-04 12:05 | 49.10623 | 2.13491 | 6273 ft | 290 kts | 166° |
| 2026-05-04 12:05 | 49.08682 | 2.14256 | 5946 ft | 286 kts | 164° |
| 2026-05-04 12:05 | 49.06773 | 2.15041 | 5609 ft | 282 kts | 164° |
| 2026-05-04 12:06 | 49.04915 | 2.15792 | 5302 ft | 278 kts | 164° |
| 2026-05-04 12:06 | 49.03062 | 2.16529 | 4998 ft | 273 kts | 164° |
| 2026-05-04 12:06 | 49.01277 | 2.17308 | 4689 ft | 260 kts | 155° |
| 2026-05-04 12:06 | 49.00001 | 2.19052 | 4406 ft | 241 kts | 115° |
| 2026-05-04 12:07 | 48.99808 | 2.21423 | 4334 ft | 218 kts | 80° |
| 2026-05-04 12:07 | 49.00082 | 2.23644 | 4065 ft | 208 kts | 82° |
| 2026-05-04 12:07 | 49.00308 | 2.25737 | 3978 ft | 193 kts | 78° |
| 2026-05-04 12:07 | 49.00594 | 2.27664 | 3958 ft | 183 kts | 78° |
| 2026-05-04 12:08 | 49.00845 | 2.29561 | 3980 ft | 183 kts | 80° |
| 2026-05-04 12:08 | 49.01060 | 2.31471 | 3971 ft | 182 kts | 82° |
| 2026-05-04 12:08 | 49.01244 | 2.33365 | 3965 ft | 179 kts | 83° |
| 2026-05-04 12:08 | 49.01402 | 2.35215 | 3955 ft | 177 kts | 85° |
| 2026-05-04 12:09 | 49.01446 | 2.37067 | 3970 ft | 178 kts | 77° |
| 2026-05-04 12:09 | 49.01981 | 2.38840 | 4013 ft | 202 kts | 67° |
| 2026-05-04 12:09 | 49.02115 | 2.41147 | 4003 ft | 241 kts | 101° |
| 2026-05-04 12:09 | 49.01914 | 2.43786 | 3953 ft | 255 kts | 84° |
| 2026-05-04 12:10 | 49.02535 | 2.46301 | 3975 ft | 259 kts | 54° |
| 2026-05-04 12:10 | 49.03902 | 2.48058 | 3974 ft | 260 kts | 25° |
| 2026-05-04 12:10 | 49.05646 | 2.48890 | 3961 ft | 266 kts | 14° |
| 2026-05-04 12:10 | 49.07468 | 2.49211 | 3970 ft | 262 kts | 359° |
| 2026-05-04 12:11 | 49.09287 | 2.49046 | 3972 ft | 260 kts | 356° |
| 2026-05-04 12:11 | 49.11075 | 2.48828 | 3982 ft | 261 kts | 356° |
| 2026-05-04 12:11 | 49.12881 | 2.48601 | 3982 ft | 261 kts | 356° |
| 2026-05-04 12:11 | 49.14669 | 2.48368 | 3972 ft | 255 kts | 355° |
| 2026-05-04 12:12 | 49.16388 | 2.47686 | 3967 ft | 259 kts | 330° |
| 2026-05-04 12:12 | 49.17708 | 2.45809 | 3984 ft | 262 kts | 301° |
| 2026-05-04 12:12 | 49.18273 | 2.43192 | 3987 ft | 261 kts | 272° |
| 2026-05-04 12:12 | 49.17948 | 2.40494 | 3983 ft | 260 kts | 245° |
| 2026-05-04 12:13 | 49.17359 | 2.37924 | 3974 ft | 261 kts | 257° |
| 2026-05-04 12:14 | 49.16358 | 2.18456 | 3984 ft | 267 kts | 266° |
| 2026-05-04 12:15 | 49.16035 | 2.15664 | 3961 ft | 266 kts | 246° |
| 2026-05-04 12:15 | 49.14976 | 2.13464 | 3962 ft | 253 kts | 216° |
| 2026-05-04 12:15 | 49.13419 | 2.12416 | 3982 ft | 242 kts | 186° |
| 2026-05-04 12:15 | 49.11768 | 2.12361 | 3982 ft | 233 kts | 177° |
| 2026-05-04 12:16 | 49.10156 | 2.12477 | 3974 ft | 230 kts | 176° |
| 2026-05-04 12:16 | 49.08579 | 2.12700 | 3936 ft | 223 kts | 163° |
| 2026-05-04 12:16 | 49.07266 | 2.13782 | 3985 ft | 217 kts | 141° |
| 2026-05-04 12:16 | 49.06081 | 2.15250 | 3987 ft | 221 kts | 139° |
| 2026-05-04 12:17 | 49.04907 | 2.16766 | 3983 ft | 221 kts | 137° |
| 2026-05-04 12:17 | 49.03846 | 2.18455 | 3976 ft | 220 kts | 131° |
| 2026-05-04 12:17 | 49.02832 | 2.20193 | 3967 ft | 219 kts | 131° |
| 2026-05-04 12:17 | 49.01834 | 2.21927 | 3949 ft | 215 kts | 131° |
| 2026-05-04 12:18 | 49.01003 | 2.23799 | 3942 ft | 219 kts | 107° |
| 2026-05-04 12:18 | 49.01002 | 2.26118 | 3802 ft | 224 kts | 78° |
| 2026-05-04 12:18 | 49.01251 | 2.28494 | 3482 ft | 228 kts | 86° |
| 2026-05-04 12:18 | 49.01359 | 2.30871 | 3195 ft | 220 kts | 87° |
| 2026-05-04 12:19 | 49.01464 | 2.33150 | 2902 ft | 213 kts | 86° |
| 2026-05-04 12:19 | 49.01575 | 2.35347 | 2610 ft | 207 kts | 86° |
| 2026-05-04 12:19 | 49.01687 | 2.37524 | 2335 ft | 201 kts | 86° |
| 2026-05-04 12:19 | 49.01795 | 2.39588 | 2067 ft | 195 kts | 86° |
| 2026-05-04 12:20 | 49.01899 | 2.41586 | 1813 ft | 183 kts | 86° |
| 2026-05-04 12:20 | 49.01996 | 2.43450 | 1584 ft | 168 kts | 86° |
| 2026-05-04 12:20 | 49.02085 | 2.45151 | 1351 ft | 154 kts | 86° |
| 2026-05-04 12:20 | 49.02169 | 2.46736 | 1155 ft | 149 kts | 86° |
| 2026-05-04 12:21 | 49.02253 | 2.48280 | 945 ft | 144 kts | 85° |
| 2026-05-04 12:21 | 49.02329 | 2.49787 | 737 ft | 141 kts | 85° |
| 2026-05-04 12:21 | 49.02406 | 2.51253 | 589 ft | 137 kts | 84° |
| 2026-05-04 12:21 | 49.02486 | 2.52712 | 373 ft | 138 kts | 84° |
| 2026-05-04 12:22 | 49.02555 | 2.54035 | 354 ft | 104 kts | 85° |
| 2026-05-04 12:22 | 49.02598 | 2.54823 | 352 ft | 46 kts | 85° |
| 2026-05-04 12:22 | 49.02579 | 2.55250 | 362 ft | 36 kts | 109° |
| 2026-05-04 12:22 | 49.02520 | 2.55450 | 361 ft | 18 kts | 117° |
| 2026-05-04 12:23 | 49.02452 | 2.55597 | 353 ft | 17 kts | 154° |
| 2026-05-04 12:23 | 49.02341 | 2.55622 | 355 ft | 16 kts | 175° |
| 2026-05-04 12:23 | 49.02233 | 2.55634 | 355 ft | 15 kts | 175° |
| 2026-05-04 12:23 | 49.02128 | 2.55644 | 356 ft | 15 kts | 176° |
| 2026-05-04 12:24 | 49.02014 | 2.55662 | 353 ft | 18 kts | 174° |
| 2026-05-04 12:24 | 49.01913 | 2.55651 | 353 ft | 14 kts | 218° |
| 2026-05-04 12:24 | 49.01882 | 2.55493 | 353 ft | 18 kts | 267° |
| 2026-05-04 12:24 | 49.01876 | 2.55362 | 358 ft | 20 kts | 265° |
| 2026-05-04 12:25 | 49.01863 | 2.55180 | 358 ft | 13 kts | 246° |
| 2026-05-04 12:25 | 49.01785 | 2.55135 | 356 ft | 13 kts | 177° |
| 2026-05-04 12:25 | 49.01693 | 2.55146 | 355 ft | 15 kts | 175° |
| 2026-05-04 12:25 | 49.01576 | 2.55159 | 357 ft | 19 kts | 175° |
| 2026-05-04 12:26 | 49.01430 | 2.55187 | 355 ft | 22 kts | 169° |
| 2026-05-04 12:26 | 49.01298 | 2.55211 | 357 ft | 15 kts | 195° |
| 2026-05-04 12:26 | 49.01200 | 2.55160 | 353 ft | 15 kts | 187° |
| 2026-05-04 12:26 | 49.01103 | 2.55185 | 353 ft | 14 kts | 162° |
| 2026-05-04 12:27 | 49.01013 | 2.55223 | 353 ft | 14 kts | 165° |
| 2026-05-04 12:27 | 49.00914 | 2.55267 | 360 ft | 16 kts | 163° |
| 2026-05-04 12:27 | 49.00796 | 2.55320 | 355 ft | 20 kts | 164° |
| 2026-05-04 12:27 | 49.00655 | 2.55383 | 353 ft | 23 kts | 165° |
| 2026-05-04 12:28 | 49.00545 | 2.55430 | 359 ft | 16 kts | 164° |
| 2026-05-04 12:28 | 49.00426 | 2.55480 | 357 ft | 19 kts | 164° |
| 2026-05-04 12:28 | 49.00288 | 2.55539 | 356 ft | 22 kts | 163° |
| 2026-05-04 12:28 | 49.00149 | 2.55600 | 361 ft | 15 kts | 164° |
| 2026-05-04 12:29 | 49.00076 | 2.55677 | 353 ft | 13 kts | 104° |
| 2026-05-04 12:29 | 49.00073 | 2.55811 | 353 ft | 13 kts | 88° |
| 2026-05-04 12:29 | 49.00077 | 2.55942 | 356 ft | 12 kts | 85° |
| 2026-05-04 12:29 | 49.00084 | 2.56070 | 356 ft | 12 kts | 84° |
| 2026-05-04 12:30 | 49.00090 | 2.56188 | 361 ft | 9 kts | 85° |
| 2026-05-04 12:30 | 49.00097 | 2.56241 | 356 ft | 4 kts | 53° |
| 2026-05-04 12:30 | 49.00125 | 2.56243 | 353 ft | 4 kts | 347° |
| 2026-05-04 12:30 | 49.00153 | 2.56231 | 357 ft | 2 kts | 345° |
| 2026-05-04 12:31 | 49.00167 | 2.56225 | 356 ft | 2 kts | 344° |